sensor_id;sensor_type;location;lat;lon;timestamp;pressure;altitude;pressure_sealevel;temperature;humidity
4024;BME280;2026;51.002;13.668;2023-02-18T00:03:33;99222.38;;;9.10;97.09
4024;BME280;2026;51.002;13.668;2023-02-18T00:08:36;99223.41;;;9.16;97.10
4024;BME280;2026;51.002;13.668;2023-02-18T00:13:40;99222.59;;;9.09;97.35
4024;BME280;2026;51.002;13.668;2023-02-18T00:18:43;99222.63;;;9.16;97.20
4024;BME280;2026;51.002;13.668;2023-02-18T00:23:46;99236.31;;;9.25;96.79
4024;BME280;2026;51.002;13.668;2023-02-18T00:28:51;99228.25;;;9.19;96.91
4024;BME280;2026;51.002;13.668;2023-02-18T00:33:56;99227.84;;;9.22;95.78
4024;BME280;2026;51.002;13.668;2023-02-18T00:39:05;99231.66;;;9.20;95.63
4024;BME280;2026;51.002;13.668;2023-02-18T00:44:11;99232.28;;;9.22;95.29
4024;BME280;2026;51.002;13.668;2023-02-18T00:49:15;99234.31;;;9.33;93.91
4024;BME280;2026;51.002;13.668;2023-02-18T00:54:18;99233.06;;;9.22;93.51
4024;BME280;2026;51.002;13.668;2023-02-18T00:59:22;99229.06;;;9.33;91.62
4024;BME280;2026;51.002;13.668;2023-02-18T01:04:25;99236.94;;;9.27;90.23
4024;BME280;2026;51.002;13.668;2023-02-18T01:09:28;99230.66;;;9.14;90.09
4024;BME280;2026;51.002;13.668;2023-02-18T01:14:33;99236.28;;;9.18;88.28
4024;BME280;2026;51.002;13.668;2023-02-18T01:19:36;99241.09;;;9.07;88.40
4024;BME280;2026;51.002;13.668;2023-02-18T01:24:39;99242.31;;;9.12;86.43
4024;BME280;2026;51.002;13.668;2023-02-18T01:29:43;99247.56;;;9.18;84.61
4024;BME280;2026;51.002;13.668;2023-02-18T01:34:46;99233.25;;;9.14;83.63
4024;BME280;2026;51.002;13.668;2023-02-18T01:39:49;99241.66;;;8.96;83.39
4024;BME280;2026;51.002;13.668;2023-02-18T01:44:54;99229.81;;;8.93;82.95
4024;BME280;2026;51.002;13.668;2023-02-18T01:50:17;99238.59;;;8.86;82.67
4024;BME280;2026;51.002;13.668;2023-02-18T01:55:22;99234.31;;;8.71;82.93
4024;BME280;2026;51.002;13.668;2023-02-18T02:00:26;99234.13;;;8.73;82.67
4024;BME280;2026;51.002;13.668;2023-02-18T02:05:31;99231.28;;;8.61;82.89
4024;BME280;2026;51.002;13.668;2023-02-18T02:10:43;99229.25;;;8.63;83.21
4024;BME280;2026;51.002;13.668;2023-02-18T02:15:55;99230.25;;;8.55;83.35
4024;BME280;2026;51.002;13.668;2023-02-18T02:21:30;99239.47;;;8.58;83.35
4024;BME280;2026;51.002;13.668;2023-02-18T02:27:12;99239.28;;;8.52;84.30
4024;BME280;2026;51.002;13.668;2023-02-18T02:32:48;99241.31;;;8.64;83.62
4024;BME280;2026;51.002;13.668;2023-02-18T02:38:04;99240.97;;;8.74;83.98
4024;BME280;2026;51.002;13.668;2023-02-18T02:43:12;99244.94;;;8.63;83.94
4024;BME280;2026;51.002;13.668;2023-02-18T02:48:24;99234.84;;;8.53;84.12
4024;BME280;2026;51.002;13.668;2023-02-18T02:53:33;99249.25;;;8.42;84.25
4024;BME280;2026;51.002;13.668;2023-02-18T02:58:37;99241.28;;;8.50;84.10
4024;BME280;2026;51.002;13.668;2023-02-18T03:04:12;99240.03;;;8.46;83.26
4024;BME280;2026;51.002;13.668;2023-02-18T03:09:32;99240.88;;;8.47;83.84
4024;BME280;2026;51.002;13.668;2023-02-18T03:14:46;99242.63;;;8.39;83.81
4024;BME280;2026;51.002;13.668;2023-02-18T03:19:57;99244.03;;;8.42;84.43
4024;BME280;2026;51.002;13.668;2023-02-18T03:25:07;99247.28;;;8.44;83.84
4024;BME280;2026;51.002;13.668;2023-02-18T03:30:16;99242.25;;;8.49;83.11
4024;BME280;2026;51.002;13.668;2023-02-18T03:35:22;99237.59;;;8.38;83.97
4024;BME280;2026;51.002;13.668;2023-02-18T03:40:27;99231.97;;;8.41;84.22
4024;BME280;2026;51.002;13.668;2023-02-18T03:45:32;99242.06;;;8.44;84.04
4024;BME280;2026;51.002;13.668;2023-02-18T03:50:35;99225.91;;;8.34;84.47
4024;BME280;2026;51.002;13.668;2023-02-18T03:55:40;99229.72;;;8.31;84.75
4024;BME280;2026;51.002;13.668;2023-02-18T04:00:43;99225.03;;;8.26;86.25
4024;BME280;2026;51.002;13.668;2023-02-18T04:05:46;99229.91;;;8.30;86.54
4024;BME280;2026;51.002;13.668;2023-02-18T04:10:50;99237.34;;;8.33;87.08
4024;BME280;2026;51.002;13.668;2023-02-18T04:15:53;99245.25;;;8.39;85.87
4024;BME280;2026;51.002;13.668;2023-02-18T04:20:56;99248.47;;;8.41;85.75
4024;BME280;2026;51.002;13.668;2023-02-18T04:26:01;99251.66;;;8.37;85.02
4024;BME280;2026;51.002;13.668;2023-02-18T04:31:03;99239.38;;;8.37;84.20
4024;BME280;2026;51.002;13.668;2023-02-18T04:36:07;99241.63;;;8.40;83.09
4024;BME280;2026;51.002;13.668;2023-02-18T04:41:12;99249.19;;;8.29;83.84
4024;BME280;2026;51.002;13.668;2023-02-18T04:46:15;99213.88;;;8.39;82.58
4024;BME280;2026;51.002;13.668;2023-02-18T04:51:18;99227.13;;;8.38;83.04
4024;BME280;2026;51.002;13.668;2023-02-18T04:56:23;99223.06;;;8.29;83.87
4024;BME280;2026;51.002;13.668;2023-02-18T05:01:26;99216.66;;;8.31;84.55
4024;BME280;2026;51.002;13.668;2023-02-18T05:06:29;99232.88;;;8.26;84.53
4024;BME280;2026;51.002;13.668;2023-02-18T05:11:33;99230.28;;;8.26;84.07
4024;BME280;2026;51.002;13.668;2023-02-18T05:16:36;99236.59;;;8.39;83.95
4024;BME280;2026;51.002;13.668;2023-02-18T05:21:39;99226.28;;;8.31;84.32
4024;BME280;2026;51.002;13.668;2023-02-18T05:26:43;99219.31;;;8.38;85.39
4024;BME280;2026;51.002;13.668;2023-02-18T05:31:47;99208.59;;;8.33;87.62
4024;BME280;2026;51.002;13.668;2023-02-18T05:36:50;99197.47;;;8.17;89.54
4024;BME280;2026;51.002;13.668;2023-02-18T05:41:55;99196.53;;;8.25;90.20
4024;BME280;2026;51.002;13.668;2023-02-18T05:46:59;99184.50;;;8.31;91.94
4024;BME280;2026;51.002;13.668;2023-02-18T05:52:02;99183.66;;;8.23;93.05
4024;BME280;2026;51.002;13.668;2023-02-18T05:57:07;99182.47;;;8.26;93.44
4024;BME280;2026;51.002;13.668;2023-02-18T06:02:10;99177.47;;;8.31;93.54
4024;BME280;2026;51.002;13.668;2023-02-18T06:07:13;99175.06;;;8.36;93.63
4024;BME280;2026;51.002;13.668;2023-02-18T06:12:17;99182.56;;;8.46;92.80
4024;BME280;2026;51.002;13.668;2023-02-18T06:17:20;99188.97;;;8.44;94.46
4024;BME280;2026;51.002;13.668;2023-02-18T06:22:23;99175.66;;;8.32;97.30
4024;BME280;2026;51.002;13.668;2023-02-18T06:27:27;99173.66;;;7.98;100.00
4024;BME280;2026;51.002;13.668;2023-02-18T06:32:30;99175.56;;;8.18;99.35
4024;BME280;2026;51.002;13.668;2023-02-18T06:37:33;99174.53;;;8.06;100.00
4024;BME280;2026;51.002;13.668;2023-02-18T06:42:37;99180.34;;;8.08;100.00
4024;BME280;2026;51.002;13.668;2023-02-18T06:47:40;99163.25;;;8.05;100.00
4024;BME280;2026;51.002;13.668;2023-02-18T06:52:43;99163.16;;;8.20;100.00
4024;BME280;2026;51.002;13.668;2023-02-18T06:57:48;99158.78;;;8.34;100.00
4024;BME280;2026;51.002;13.668;2023-02-18T07:02:51;99159.38;;;8.30;100.00
4024;BME280;2026;51.002;13.668;2023-02-18T07:07:54;99155.47;;;8.12;100.00
4024;BME280;2026;51.002;13.668;2023-02-18T07:12:59;99156.25;;;8.06;100.00
4024;BME280;2026;51.002;13.668;2023-02-18T07:18:02;99148.94;;;7.94;100.00
4024;BME280;2026;51.002;13.668;2023-02-18T07:23:05;99150.25;;;8.12;100.00
4024;BME280;2026;51.002;13.668;2023-02-18T07:28:09;99139.84;;;8.25;100.00
4024;BME280;2026;51.002;13.668;2023-02-18T07:33:12;99135.44;;;8.26;100.00
4024;BME280;2026;51.002;13.668;2023-02-18T07:38:15;99107.50;;;8.26;100.00
4024;BME280;2026;51.002;13.668;2023-02-18T07:43:20;99117.75;;;8.21;100.00
4024;BME280;2026;51.002;13.668;2023-02-18T07:48:23;99078.16;;;8.18;100.00
4024;BME280;2026;51.002;13.668;2023-02-18T07:53:26;99075.19;;;8.41;100.00
4024;BME280;2026;51.002;13.668;2023-02-18T07:58:32;99078.44;;;8.50;100.00
4024;BME280;2026;51.002;13.668;2023-02-18T08:03:36;99085.41;;;8.29;100.00
4024;BME280;2026;51.002;13.668;2023-02-18T08:08:39;99076.06;;;8.62;100.00
4024;BME280;2026;51.002;13.668;2023-02-18T08:13:43;99055.59;;;8.79;100.00
4024;BME280;2026;51.002;13.668;2023-02-18T08:18:48;99048.97;;;8.90;100.00
4024;BME280;2026;51.002;13.668;2023-02-18T08:23:51;99044.28;;;8.65;100.00
4024;BME280;2026;51.002;13.668;2023-02-18T08:28:56;99040.09;;;8.77;100.00
4024;BME280;2026;51.002;13.668;2023-02-18T08:33:59;99024.38;;;8.44;100.00
4024;BME280;2026;51.002;13.668;2023-02-18T08:39:04;99017.75;;;8.54;100.00
4024;BME280;2026;51.002;13.668;2023-02-18T08:44:08;98997.06;;;8.66;100.00
4024;BME280;2026;51.002;13.668;2023-02-18T08:49:11;98992.44;;;9.02;99.79
4024;BME280;2026;51.002;13.668;2023-02-18T08:54:14;98989.41;;;8.99;100.00
4024;BME280;2026;51.002;13.668;2023-02-18T08:59:18;98979.94;;;9.18;100.00
4024;BME280;2026;51.002;13.668;2023-02-18T09:04:21;98966.38;;;9.48;97.68
4024;BME280;2026;51.002;13.668;2023-02-18T09:09:24;98960.47;;;9.80;94.89
4024;BME280;2026;51.002;13.668;2023-02-18T09:14:28;98954.63;;;10.10;93.64
4024;BME280;2026;51.002;13.668;2023-02-18T09:19:31;98952.50;;;10.32;91.92
4024;BME280;2026;51.002;13.668;2023-02-18T09:24:36;98935.59;;;10.28;92.09
4024;BME280;2026;51.002;13.668;2023-02-18T09:29:41;98936.66;;;10.45;90.24
4024;BME280;2026;51.002;13.668;2023-02-18T09:34:44;98912.41;;;10.57;90.15
4024;BME280;2026;51.002;13.668;2023-02-18T09:39:47;98920.09;;;10.77;89.35
4024;BME280;2026;51.002;13.668;2023-02-18T09:44:54;98913.31;;;10.88;90.01
4024;BME280;2026;51.002;13.668;2023-02-18T09:50:04;98907.63;;;10.91;90.95
4024;BME280;2026;51.002;13.668;2023-02-18T09:55:17;98902.25;;;10.86;92.71
4024;BME280;2026;51.002;13.668;2023-02-18T10:00:28;98885.00;;;10.97;92.53
4024;BME280;2026;51.002;13.668;2023-02-18T10:05:33;98872.97;;;10.89;92.92
4024;BME280;2026;51.002;13.668;2023-02-18T10:10:39;98881.13;;;10.81;93.66
4024;BME280;2026;51.002;13.668;2023-02-18T10:15:45;98873.09;;;10.76;94.61
4024;BME280;2026;51.002;13.668;2023-02-18T10:20:50;98875.88;;;10.81;95.17
4024;BME280;2026;51.002;13.668;2023-02-18T10:25:54;98858.25;;;10.88;94.83
4024;BME280;2026;51.002;13.668;2023-02-18T10:31:02;98853.66;;;11.02;95.25
4024;BME280;2026;51.002;13.668;2023-02-18T10:36:22;98843.09;;;10.90;96.11
4024;BME280;2026;51.002;13.668;2023-02-18T10:41:31;98841.03;;;10.92;96.29
4024;BME280;2026;51.002;13.668;2023-02-18T10:46:47;98826.56;;;10.90;96.11
4024;BME280;2026;51.002;13.668;2023-02-18T10:51:55;98828.53;;;10.94;95.24
4024;BME280;2026;51.002;13.668;2023-02-18T10:56:59;98796.88;;;11.08;95.19
4024;BME280;2026;51.002;13.668;2023-02-18T11:02:15;98784.97;;;11.24;94.69
4024;BME280;2026;51.002;13.668;2023-02-18T11:07:22;98771.75;;;11.31;93.64
4024;BME280;2026;51.002;13.668;2023-02-18T11:12:28;98758.41;;;11.63;92.79
4024;BME280;2026;51.002;13.668;2023-02-18T11:17:34;98749.19;;;11.72;91.25
4024;BME280;2026;51.002;13.668;2023-02-18T11:22:38;98717.06;;;11.70;89.94
4024;BME280;2026;51.002;13.668;2023-02-18T11:27:44;98723.16;;;12.06;88.05
4024;BME280;2026;51.002;13.668;2023-02-18T11:32:52;98725.09;;;11.99;87.81
4024;BME280;2026;51.002;13.668;2023-02-18T11:37:58;98713.09;;;12.03;86.67
4024;BME280;2026;51.002;13.668;2023-02-18T11:43:04;98708.06;;;12.02;86.14
4024;BME280;2026;51.002;13.668;2023-02-18T11:48:15;98699.84;;;11.98;86.25
4024;BME280;2026;51.002;13.668;2023-02-18T11:53:26;98695.50;;;11.92;86.42
4024;BME280;2026;51.002;13.668;2023-02-18T11:58:36;98686.72;;;11.74;87.49
4024;BME280;2026;51.002;13.668;2023-02-18T12:03:43;98689.13;;;11.64;88.22
4024;BME280;2026;51.002;13.668;2023-02-18T12:08:52;98678.34;;;11.53;89.60
4024;BME280;2026;51.002;13.668;2023-02-18T12:13:57;98679.16;;;11.42;89.62
4024;BME280;2026;51.002;13.668;2023-02-18T12:19:18;98666.59;;;11.44;89.22
4024;BME280;2026;51.002;13.668;2023-02-18T12:24:46;98678.56;;;11.40;88.75
4024;BME280;2026;51.002;13.668;2023-02-18T12:30:08;98665.81;;;11.55;87.78
4024;BME280;2026;51.002;13.668;2023-02-18T12:35:36;98664.19;;;11.78;87.35
4024;BME280;2026;51.002;13.668;2023-02-18T12:40:56;98667.41;;;11.56;86.85
4024;BME280;2026;51.002;13.668;2023-02-18T12:46:22;98661.75;;;11.29;87.41
4024;BME280;2026;51.002;13.668;2023-02-18T12:51:39;98679.75;;;11.13;88.68
4024;BME280;2026;51.002;13.668;2023-02-18T12:57:04;98674.50;;;10.83;90.83
4024;BME280;2026;51.002;13.668;2023-02-18T13:02:27;98662.41;;;10.82;91.35
4024;BME280;2026;51.002;13.668;2023-02-18T13:08:05;98656.41;;;10.81;89.18
4024;BME280;2026;51.002;13.668;2023-02-18T13:13:16;98663.13;;;10.89;88.87
4024;BME280;2026;51.002;13.668;2023-02-18T13:18:23;98641.03;;;10.97;86.47
4024;BME280;2026;51.002;13.668;2023-02-18T13:23:33;98639.44;;;11.08;84.39
4024;BME280;2026;51.002;13.668;2023-02-18T13:28:41;98639.16;;;11.16;83.81
4024;BME280;2026;51.002;13.668;2023-02-18T13:33:50;98650.59;;;10.91;82.89
4024;BME280;2026;51.002;13.668;2023-02-18T13:39:05;98650.34;;;10.81;82.62
4024;BME280;2026;51.002;13.668;2023-02-18T13:44:38;98656.50;;;10.56;84.84
4024;BME280;2026;51.002;13.668;2023-02-18T13:49:41;98667.13;;;10.61;84.24
4024;BME280;2026;51.002;13.668;2023-02-18T13:54:47;98663.34;;;10.57;84.11
4024;BME280;2026;51.002;13.668;2023-02-18T13:59:56;98673.19;;;10.43;84.18
4024;BME280;2026;51.002;13.668;2023-02-18T14:05:18;98678.66;;;10.41;84.29
4024;BME280;2026;51.002;13.668;2023-02-18T14:10:32;98673.25;;;10.36;83.36
4024;BME280;2026;51.002;13.668;2023-02-18T14:15:58;98664.53;;;10.42;82.37
4024;BME280;2026;51.002;13.668;2023-02-18T14:21:15;98664.97;;;10.39;83.08
4024;BME280;2026;51.002;13.668;2023-02-18T14:26:28;98696.19;;;10.22;84.51
4024;BME280;2026;51.002;13.668;2023-02-18T14:31:52;98673.66;;;10.21;83.67
4024;BME280;2026;51.002;13.668;2023-02-18T14:37:03;98652.31;;;10.17;83.85
4024;BME280;2026;51.002;13.668;2023-02-18T14:42:22;98675.44;;;10.21;83.40
4024;BME280;2026;51.002;13.668;2023-02-18T14:47:32;98705.00;;;10.09;83.99
4024;BME280;2026;51.002;13.668;2023-02-18T14:52:42;98691.53;;;10.05;84.39
4024;BME280;2026;51.002;13.668;2023-02-18T14:57:51;98702.66;;;10.01;84.11
4024;BME280;2026;51.002;13.668;2023-02-18T15:02:55;98706.44;;;10.05;85.84
4024;BME280;2026;51.002;13.668;2023-02-18T15:08:00;98712.22;;;9.88;88.77
4024;BME280;2026;51.002;13.668;2023-02-18T15:13:08;98719.94;;;9.83;89.03
4024;BME280;2026;51.002;13.668;2023-02-18T15:18:20;98716.53;;;9.83;88.26
4024;BME280;2026;51.002;13.668;2023-02-18T15:23:24;98722.28;;;9.91;87.69
4024;BME280;2026;51.002;13.668;2023-02-18T15:28:31;98726.34;;;9.87;88.07
4024;BME280;2026;51.002;13.668;2023-02-18T15:33:34;98724.84;;;9.98;85.87
4024;BME280;2026;51.002;13.668;2023-02-18T15:38:38;98736.72;;;10.01;85.17
4024;BME280;2026;51.002;13.668;2023-02-18T15:43:53;98730.06;;;10.24;84.31
4024;BME280;2026;51.002;13.668;2023-02-18T15:48:56;98732.66;;;10.24;82.88
4024;BME280;2026;51.002;13.668;2023-02-18T15:54:01;98741.69;;;10.28;82.32
4024;BME280;2026;51.002;13.668;2023-02-18T15:59:09;98739.06;;;10.28;81.70
4024;BME280;2026;51.002;13.668;2023-02-18T16:04:19;98736.03;;;10.31;81.65
4024;BME280;2026;51.002;13.668;2023-02-18T16:09:24;98724.81;;;10.24;82.78
4024;BME280;2026;51.002;13.668;2023-02-18T16:14:32;98753.41;;;10.25;81.90
4024;BME280;2026;51.002;13.668;2023-02-18T16:19:44;98745.91;;;10.29;81.90
4024;BME280;2026;51.002;13.668;2023-02-18T16:25:15;98755.22;;;10.25;82.16
4024;BME280;2026;51.002;13.668;2023-02-18T16:30:21;98771.13;;;10.30;81.90
4024;BME280;2026;51.002;13.668;2023-02-18T16:35:27;98801.16;;;10.27;82.58
4024;BME280;2026;51.002;13.668;2023-02-18T16:40:38;98791.47;;;10.28;82.47
4024;BME280;2026;51.002;13.668;2023-02-18T16:45:44;98790.16;;;10.18;83.03
4024;BME280;2026;51.002;13.668;2023-02-18T16:50:50;98800.19;;;10.22;82.94
4024;BME280;2026;51.002;13.668;2023-02-18T16:55:54;98795.56;;;10.24;82.29
4024;BME280;2026;51.002;13.668;2023-02-18T17:00:59;98792.13;;;10.23;81.99
4024;BME280;2026;51.002;13.668;2023-02-18T17:06:02;98805.44;;;10.22;82.08
4024;BME280;2026;51.002;13.668;2023-02-18T17:11:08;98805.66;;;10.20;82.29
4024;BME280;2026;51.002;13.668;2023-02-18T17:16:18;98818.59;;;10.15;83.13
4024;BME280;2026;51.002;13.668;2023-02-18T17:21:23;98834.13;;;10.10;84.16
4024;BME280;2026;51.002;13.668;2023-02-18T17:26:28;98822.31;;;10.00;85.65
4024;BME280;2026;51.002;13.668;2023-02-18T17:31:34;98837.94;;;9.88;86.78
4024;BME280;2026;51.002;13.668;2023-02-18T17:36:38;98847.66;;;9.81;87.10
4024;BME280;2026;51.002;13.668;2023-02-18T17:41:46;98839.22;;;9.79;86.85
4024;BME280;2026;51.002;13.668;2023-02-18T17:46:50;98833.78;;;9.74;86.95
4024;BME280;2026;51.002;13.668;2023-02-18T17:51:55;98859.72;;;9.82;85.95
4024;BME280;2026;51.002;13.668;2023-02-18T17:56:58;98865.38;;;9.79;86.13
4024;BME280;2026;51.002;13.668;2023-02-18T18:02:05;98871.59;;;9.85;85.98
4024;BME280;2026;51.002;13.668;2023-02-18T18:07:12;98861.69;;;9.87;86.21
4024;BME280;2026;51.002;13.668;2023-02-18T18:12:15;98885.88;;;9.89;85.49
4024;BME280;2026;51.002;13.668;2023-02-18T18:17:20;98873.94;;;10.00;83.92
4024;BME280;2026;51.002;13.668;2023-02-18T18:22:23;98891.81;;;10.03;83.78
4024;BME280;2026;51.002;13.668;2023-02-18T18:27:26;98907.97;;;10.00;84.08
4024;BME280;2026;51.002;13.668;2023-02-18T18:32:30;98895.13;;;9.91;85.97
4024;BME280;2026;51.002;13.668;2023-02-18T18:37:33;98916.75;;;9.80;87.47
4024;BME280;2026;51.002;13.668;2023-02-18T18:42:37;98920.28;;;9.60;88.29
4024;BME280;2026;51.002;13.668;2023-02-18T18:47:42;98912.19;;;9.69;88.54
4024;BME280;2026;51.002;13.668;2023-02-18T18:52:46;98910.16;;;9.71;87.88
4024;BME280;2026;51.002;13.668;2023-02-18T18:57:49;98929.25;;;9.78;87.28
4024;BME280;2026;51.002;13.668;2023-02-18T19:02:54;98926.38;;;9.86;86.75
4024;BME280;2026;51.002;13.668;2023-02-18T19:07:57;98926.19;;;9.81;86.52
4024;BME280;2026;51.002;13.668;2023-02-18T19:13:01;98927.00;;;9.82;86.20
4024;BME280;2026;51.002;13.668;2023-02-18T19:18:06;98947.56;;;9.78;86.52
4024;BME280;2026;51.002;13.668;2023-02-18T19:23:10;98939.91;;;9.76;86.10
4024;BME280;2026;51.002;13.668;2023-02-18T19:28:13;98939.97;;;9.70;86.67
4024;BME280;2026;51.002;13.668;2023-02-18T19:33:18;98945.78;;;9.72;86.48
4024;BME280;2026;51.002;13.668;2023-02-18T19:38:21;98947.22;;;9.68;87.00
4024;BME280;2026;51.002;13.668;2023-02-18T19:43:24;98948.63;;;9.63;87.91
4024;BME280;2026;51.002;13.668;2023-02-18T19:48:28;98959.53;;;9.60;88.24
4024;BME280;2026;51.002;13.668;2023-02-18T19:53:31;98946.03;;;9.50;88.93
4024;BME280;2026;51.002;13.668;2023-02-18T19:58:34;98947.47;;;9.53;89.50
4024;BME280;2026;51.002;13.668;2023-02-18T20:03:39;98950.88;;;9.46;89.91
4024;BME280;2026;51.002;13.668;2023-02-18T20:08:42;98944.44;;;9.49;89.97
4024;BME280;2026;51.002;13.668;2023-02-18T20:13:46;98961.78;;;9.36;90.30
4024;BME280;2026;51.002;13.668;2023-02-18T20:18:51;98964.19;;;9.45;89.95
4024;BME280;2026;51.002;13.668;2023-02-18T20:23:54;98964.56;;;9.42;89.36
4024;BME280;2026;51.002;13.668;2023-02-18T20:28:57;98962.97;;;9.41;89.65
4024;BME280;2026;51.002;13.668;2023-02-18T20:34:02;98967.22;;;9.35;90.21
4024;BME280;2026;51.002;13.668;2023-02-18T20:39:04;98968.00;;;9.35;90.50
4024;BME280;2026;51.002;13.668;2023-02-18T20:44:18;98968.81;;;9.36;90.81
4024;BME280;2026;51.002;13.668;2023-02-18T20:49:22;98980.28;;;9.42;89.78
4024;BME280;2026;51.002;13.668;2023-02-18T20:54:25;98992.78;;;9.40;89.29
4024;BME280;2026;51.002;13.668;2023-02-18T20:59:29;98983.53;;;9.30;89.85
4024;BME280;2026;51.002;13.668;2023-02-18T21:04:35;98971.88;;;9.33;89.67
4024;BME280;2026;51.002;13.668;2023-02-18T21:09:38;98975.06;;;9.28;89.17
4024;BME280;2026;51.002;13.668;2023-02-18T21:14:41;98975.91;;;9.22;89.09
4024;BME280;2026;51.002;13.668;2023-02-18T21:19:45;98979.53;;;9.21;89.85
4024;BME280;2026;51.002;13.668;2023-02-18T21:24:49;98977.31;;;9.31;90.18
4024;BME280;2026;51.002;13.668;2023-02-18T21:29:52;98974.69;;;9.31;90.63
4024;BME280;2026;51.002;13.668;2023-02-18T21:34:56;98982.09;;;9.34;90.66
4024;BME280;2026;51.002;13.668;2023-02-18T21:39:59;98984.34;;;9.37;90.74
4024;BME280;2026;51.002;13.668;2023-02-18T21:45:03;98981.50;;;9.32;90.89
4024;BME280;2026;51.002;13.668;2023-02-18T21:50:08;98974.69;;;9.31;91.61
4024;BME280;2026;51.002;13.668;2023-02-18T21:55:11;98969.63;;;9.43;91.99
4024;BME280;2026;51.002;13.668;2023-02-18T22:00:14;98969.03;;;9.34;91.02
4024;BME280;2026;51.002;13.668;2023-02-18T22:05:23;98967.22;;;9.35;91.01
4024;BME280;2026;51.002;13.668;2023-02-18T22:10:26;98968.22;;;9.27;90.79
4024;BME280;2026;51.002;13.668;2023-02-18T22:15:29;98979.50;;;9.34;90.01
4024;BME280;2026;51.002;13.668;2023-02-18T22:20:33;98985.13;;;9.38;89.34
4024;BME280;2026;51.002;13.668;2023-02-18T22:25:36;98981.09;;;9.35;89.18
4024;BME280;2026;51.002;13.668;2023-02-18T22:30:39;98979.50;;;9.28;91.03
4024;BME280;2026;51.002;13.668;2023-02-18T22:35:44;98980.69;;;9.32;91.77
4024;BME280;2026;51.002;13.668;2023-02-18T22:40:46;98975.31;;;9.27;91.93
4024;BME280;2026;51.002;13.668;2023-02-18T22:45:51;98983.13;;;9.20;91.72
4024;BME280;2026;51.002;13.668;2023-02-18T22:50:55;98986.56;;;9.20;92.30
4024;BME280;2026;51.002;13.668;2023-02-18T22:56:00;98980.31;;;9.28;91.62
4024;BME280;2026;51.002;13.668;2023-02-18T23:01:03;98977.09;;;9.26;91.77
4024;BME280;2026;51.002;13.668;2023-02-18T23:06:10;98981.94;;;9.29;91.87
4024;BME280;2026;51.002;13.668;2023-02-18T23:11:16;98981.31;;;9.34;91.10
4024;BME280;2026;51.002;13.668;2023-02-18T23:16:19;98981.94;;;9.29;91.12
4024;BME280;2026;51.002;13.668;2023-02-18T23:21:24;98983.53;;;9.30;90.54
4024;BME280;2026;51.002;13.668;2023-02-18T23:26:27;98988.34;;;9.33;90.21
4024;BME280;2026;51.002;13.668;2023-02-18T23:31:30;98976.28;;;9.32;90.06
4024;BME280;2026;51.002;13.668;2023-02-18T23:36:40;98975.47;;;9.32;90.39
4024;BME280;2026;51.002;13.668;2023-02-18T23:41:44;98976.28;;;9.32;89.98
4024;BME280;2026;51.002;13.668;2023-02-18T23:46:47;98965.81;;;9.32;89.74
4024;BME280;2026;51.002;13.668;2023-02-18T23:51:53;98971.25;;;9.31;89.48
4024;BME280;2026;51.002;13.668;2023-02-18T23:56:56;98952.94;;;9.31;89.62
